Home   Weather   Township of Denver   Past weeks
Flag for USA

Past Weather in Township of Denver, Illinois, USA — Yesterday and Last 2 Weeks

Currently: 67 °F. Clear. (Weather station: Effingham County Memorial Airport, USA). See more current weather

Past Weather in Township of Denver — Graph

°F

Township of Denver Temperature Yesterday

Maximum temperature yesterday: 91 °F (at 3:55 pm)
Minimum temperature yesterday: 63 °F (at 6:55 am)
Average temperature yesterday: 75 °F

High & Low Weather Summary for the Past Weeks

 TemperatureHumidityPressure
High91 °F (Sep 18, 3:55 pm)99% (Sep 10, 5:15 am)30.18 "Hg (Sep 10, 5:15 am)
Low52 °F (Sep 10, 6:55 am)34% (Sep 8, 2:55 pm)29.78 "Hg (Sep 7, 6:15 pm)
Average72 °F74%30.02 "Hg
* Reported Sep 3 11:15 pm — Sep 18 11:55 pm, Township of Denver. Weather by CustomWeather, © 2021

Note: Actual official high and low records may vary slightly from our data, if they occured in-between our weather recording intervals... More about our weather records

Township of Denver Weather History for the Previous 24 Hours

Scroll right to see more
 ConditionsComfort  
Time TempWeatherWind HumidityBarometerVisibility
11:55 pm
Sat, Sep 18
68 °FClear.No wind95%30.12 "Hg10 mi
11:15 pm69 °FClear.No wind94%30.12 "Hg10 mi
10:55 pm68 °FClear.No wind95%30.11 "Hg10 mi
10:35 pm69 °FClear.No wind93%30.12 "Hg10 mi
10:15 pm70 °FClear.No wind93%30.11 "Hg10 mi
9:55 pm70 °FClear.No wind93%30.11 "Hg10 mi
9:35 pm70 °FClear.No wind92%30.11 "Hg10 mi
9:15 pm71 °FClear.No wind91%30.11 "Hg10 mi
8:55 pm71 °FClear.No wind91%30.10 "Hg10 mi
8:35 pm72 °FClear.No wind88%30.11 "Hg10 mi
8:15 pm72 °FClear.No wind88%30.10 "Hg10 mi
7:55 pm74 °FClear.No wind85%30.09 "Hg10 mi
6:35 pm82 °FSunny.No wind64%30.09 "Hg10 mi
6:15 pm86 °FSunny.5 mph55%30.09 "Hg10 mi
5:55 pm87 °FScattered clouds.No wind49%30.08 "Hg10 mi
5:35 pm88 °FScattered clouds.No wind50%30.08 "Hg10 mi
5:15 pm88 °FScattered clouds.3 mph50%30.08 "Hg10 mi
4:55 pm88 °FScattered clouds.3 mph51%30.09 "Hg10 mi
4:35 pm88 °FScattered clouds.No wind46%30.08 "Hg10 mi
4:15 pm90 °FSunny.3 mph43%30.08 "Hg10 mi
3:55 pm91 °FSunny.3 mph42%30.09 "Hg10 mi
3:35 pm89 °FSunny.No wind43%30.10 "Hg10 mi
3:15 pm90 °FSunny.No wind43%30.11 "Hg10 mi
2:55 pm90 °FScattered clouds.3 mph44%30.11 "Hg10 mi
2:35 pm86 °FScattered clouds.No wind50%30.12 "Hg10 mi
1:55 pm88 °FScattered clouds.3 mph48%30.13 "Hg10 mi
1:35 pm88 °FScattered clouds.3 mph51%30.14 "Hg10 mi
1:15 pm87 °FScattered clouds.No wind52%30.14 "Hg10 mi
12:55 pm86 °FScattered clouds.No wind54%30.16 "Hg10 mi
12:35 pm85 °FScattered clouds.No wind56%30.16 "Hg10 mi
12:15 pm84 °FScattered clouds.3 mph60%30.17 "Hg10 mi
11:55 am87 °FPartly sunny.6 mph55%30.16 "Hg10 mi
11:15 am85 °FSunny.3 mph60%30.17 "Hg10 mi
10:55 am84 °FSunny.No wind62%30.18 "Hg10 mi
10:35 am83 °FSunny.6 mph64%30.18 "Hg10 mi
10:15 am83 °FSunny.5 mph65%30.18 "Hg10 mi
9:55 am82 °FSunny.No wind69%30.18 "Hg10 mi
9:35 am80 °FSunny.No wind75%30.18 "Hg10 mi
9:15 am77 °FSunny.No wind80%30.18 "Hg10 mi
8:55 am76 °FSunny.5 mph85%30.18 "Hg10 mi
8:35 am73 °FSunny.No wind90%30.16 "Hg10 mi
8:15 am72 °FSunny.No wind92%30.17 "Hg10 mi
7:55 am69 °FSunny.No wind95%30.17 "Hg10 mi
7:35 am66 °FSunny.No wind96%30.16 "Hg10 mi
6:55 am63 °FSunny.No wind98%30.16 "Hg7 mi
6:35 am64 °FFog.No wind98%30.16 "Hg1 mi
6:15 am64 °FPassing clouds.No wind97%30.14 "Hg7 mi
5:55 am64 °FClear.No wind97%30.14 "Hg10 mi
5:35 am64 °FClear.No wind98%30.13 "Hg7 mi
5:15 am65 °FClear.No wind98%30.13 "Hg7 mi
4:55 am64 °FClear.No wind98%30.13 "Hg7 mi
4:35 am65 °FFog.No wind97%30.13 "Hg2 mi
4:15 am65 °FFog.No wind97%30.13 "Hg5 mi
3:55 am65 °FFog.3 mph97%30.13 "Hg5 mi
3:35 am65 °FFog.No wind98%30.13 "Hg4 mi
3:15 am65 °FFog.No wind97%30.13 "Hg1 mi
2:55 am66 °FClear.No wind98%30.14 "Hg7 mi
2:35 am66 °FClear.No wind97%30.14 "Hg7 mi
2:15 am66 °FClear.No wind97%30.14 "Hg10 mi
1:55 am66 °FClear.No wind98%30.14 "Hg10 mi
1:35 am67 °FClear.No wind97%30.14 "Hg10 mi
1:15 am67 °FClear.No wind97%30.14 "Hg7 mi
Weather by CustomWeather, © 2021

See weather overview